?

Log in

No account? Create an account

January 12th, 2005

more crazy weather

KCMI 121953Z 18013KT 10SM SCT031 SCT040 OVC047 17/14 A2965 RMK AO2 SLP041 T01670144

Last night's thunderstorms, today's 63-degree weather. It'll only last one day, and then we'll pay for it dearly with below-zero temperatures this weekend, but any mid-January day that I get to go barefoot is a special treat as it is.

Profile

14L
szasz
Charley

Latest Month

July 2013
S M T W T F S
 123456
78910111213
14151617181920
21222324252627
28293031